Time;durP1;ratioP1;P1;durP2;ratioP2;P2;SDS_P1;SDS_P2;PMS_P1;PMS_P2;Temp;Humidity;BMP_temperature;BMP_pressure;BME280_temperature;BME280_humidity;BME280_pressure;Samples;Min_cycle;Max_cycle;Signal;HPM_P1;HPM_P2
2023/04/14 00:01:44;;;;;;;7.72;4.70;;;435.60;1920.00;;;;;;5035569;28;20485;-81
2023/04/14 00:04:10;;;;;;;6.38;3.80;;;435.60;1920.00;;;;;;5035466;28;20036;-79
2023/04/14 00:06:36;;;;;;;9.45;4.25;;;435.60;1920.00;;;;;;5035699;28;20025;-80
2023/04/14 00:09:02;;;;;;;5.63;3.63;;;435.60;1945.60;;;;;;5036002;28;20078;-81
2023/04/14 00:11:28;;;;;;;5.78;3.40;;;435.60;1945.60;;;;;;5053771;28;20056;-79
2023/04/14 00:13:55;;;;;;;7.80;3.97;;;435.50;1945.60;;;;;;5053152;28;20064;-82
2023/04/14 00:16:21;;;;;;;7.57;4.05;;;435.60;1920.00;;;;;;5035995;28;20032;-80
2023/04/14 00:18:46;;;;;;;6.18;3.88;;;435.50;1945.60;;;;;;5035868;28;20025;-82
2023/04/14 00:21:12;;;;;;;5.93;3.60;;;435.50;1920.00;;;;;;5035480;28;20025;-83
2023/04/14 00:23:38;;;;;;;5.50;3.38;;;435.50;1945.60;;;;;;5053910;28;20095;-80
2023/04/14 00:26:04;;;;;;;6.60;3.95;;;435.50;1945.60;;;;;;5035726;28;20029;-79
2023/04/14 00:28:30;;;;;;;6.65;3.70;;;435.50;1945.60;;;;;;5033808;28;20116;-81
2023/04/14 00:30:56;;;;;;;5.88;3.63;;;435.50;1945.60;;;;;;5035349;28;20167;-78
2023/04/14 00:33:21;;;;;;;7.40;3.85;;;435.50;1945.60;;;;;;5034717;28;20465;-80
2023/04/14 00:35:47;;;;;;;6.43;4.03;;;435.50;1945.60;;;;;;5035200;28;20037;-82
2023/04/14 00:38:13;;;;;;;7.03;3.90;;;435.50;1945.60;;;;;;5037615;28;20053;-79
2023/04/14 00:40:39;;;;;;;8.10;3.72;;;435.50;1945.60;;;;;;5039358;28;20453;-80
2023/04/14 00:43:04;;;;;;;5.50;3.58;;;435.50;1945.60;;;;;;5057763;28;20039;-82
2023/04/14 00:45:31;;;;;;;5.55;3.60;;;435.50;1945.60;;;;;;5057639;28;20018;-80
2023/04/14 00:47:57;;;;;;;5.82;3.20;;;435.50;1971.20;;;;;;5039484;28;20483;-81
2023/04/14 00:50:23;;;;;;;6.85;3.70;;;435.50;1945.60;;;;;;5039539;28;20445;-80
2023/04/14 00:52:51;;;;;;;12.50;3.60;;;435.50;1945.60;;;;;;5039594;28;20047;-82
2023/04/14 00:55:18;;;;;;;8.82;3.45;;;435.60;1945.60;;;;;;5039123;28;20040;-79
2023/04/14 00:57:45;;;;;;;5.43;3.53;;;435.60;1945.60;;;;;;5039463;28;20021;-80
2023/04/14 01:00:12;;;;;;;8.93;3.92;;;435.60;1945.60;;;;;;5039507;28;20060;-81
2023/04/14 01:02:38;;;;;;;8.98;4.25;;;435.60;1971.20;;;;;;5056905;28;20082;-82
2023/04/14 01:05:04;;;;;;;12.30;4.03;;;435.60;1971.20;;;;;;5056929;28;20025;-79
2023/04/14 01:07:30;;;;;;;5.80;3.63;;;435.60;1971.20;;;;;;5039352;28;20113;-80
2023/04/14 01:09:56;;;;;;;6.82;3.70;;;435.60;1971.20;;;;;;5056991;28;20052;-78
2023/04/14 01:12:28;;;;;;;10.25;4.85;;;435.60;1971.20;;;;;;5057120;28;20029;-81
2023/04/14 01:14:54;;;;;;;7.82;3.05;;;435.50;1971.20;;;;;;5039182;28;20076;-81
2023/04/14 01:17:40;;;;;;;6.65;3.55;;;435.50;1971.20;;;;;;5038872;28;20061;-80
2023/04/14 01:20:11;;;;;;;5.93;3.88;;;435.50;1971.20;;;;;;5039123;28;20025;-82
2023/04/14 01:22:48;;;;;;;7.25;3.88;;;435.50;1971.20;;;;;;5056455;28;20033;-80
2023/04/14 01:25:30;;;;;;;6.78;3.20;;;435.50;1971.20;;;;;;5038938;28;20124;-81
2023/04/14 01:28:30;;;;;;;5.18;3.38;;;435.50;1971.20;;;;;;5039096;28;20024;-78
2023/04/14 01:31:17;;;;;;;12.63;3.78;;;435.50;1971.20;;;;;;5038494;28;20029;-79
2023/04/14 01:33:44;;;;;;;6.53;3.85;;;435.50;1971.20;;;;;;5038800;28;20033;-80
2023/04/14 01:36:16;;;;;;;8.35;3.28;;;435.50;1971.20;;;;;;5038711;28;20029;-80
2023/04/14 01:38:44;;;;;;;6.57;3.40;;;435.50;1971.20;;;;;;5038253;28;20405;-81
2023/04/14 01:41:12;;;;;;;6.20;3.58;;;435.50;1971.20;;;;;;5038763;28;20107;-82
2023/04/14 01:43:43;;;;;;;7.75;3.60;;;435.50;1971.20;;;;;;5038177;28;20082;-79
2023/04/14 01:46:14;;;;;;;8.32;4.07;;;435.50;1971.20;;;;;;5056192;28;20028;-80
2023/04/14 01:48:41;;;;;;;6.00;3.50;;;435.50;1971.20;;;;;;5056112;28;20025;-80
2023/04/14 01:51:09;;;;;;;4.80;3.08;;;435.50;1971.20;;;;;;5037815;28;20289;-83
2023/04/14 01:53:38;;;;;;;8.88;3.40;;;435.40;1971.20;;;;;;5056176;28;20469;-82
2023/04/14 01:56:07;;;;;;;8.45;4.82;;;435.30;1971.20;;;;;;5038260;28;20115;-80
2023/04/14 01:58:35;;;;;;;6.43;4.03;;;435.30;1971.20;;;;;;5055949;28;20028;-79
2023/04/14 02:01:01;;;;;;;6.38;3.40;;;410.50;1971.20;;;;;;5056171;28;20104;-79
2023/04/14 02:03:28;;;;;;;5.30;3.67;;;435.30;1996.80;;;;;;5038237;28;20035;-80
2023/04/14 02:05:54;;;;;;;8.05;3.85;;;435.20;1996.80;;;;;;5055731;28;20049;-79
2023/04/14 02:08:23;;;;;;;7.13;3.78;;;435.20;1996.80;;;;;;5038131;28;20021;-81
2023/04/14 02:10:52;;;;;;;10.20;4.22;;;435.20;1996.80;;;;;;5038121;28;20063;-82
2023/04/14 02:13:20;;;;;;;6.07;3.53;;;410.50;2022.40;;;;;;5037680;28;20036;-82
2023/04/14 02:15:50;;;;;;;10.25;3.33;;;410.50;2022.40;;;;;;5037669;28;20037;-82
2023/04/14 02:18:19;;;;;;;7.60;3.35;;;410.50;1996.80;;;;;;5037869;28;20032;-81
2023/04/14 02:20:47;;;;;;;6.10;3.13;;;410.40;2022.40;;;;;;5037565;28;20028;-82
2023/04/14 02:23:14;;;;;;;11.55;3.90;;;410.50;1996.80;;;;;;5037956;28;20037;-82
2023/04/14 02:25:50;;;;;;;11.38;3.45;;;410.50;1996.80;;;;;;5055110;28;20461;-81
2023/04/14 02:28:19;;;;;;;10.48;3.55;;;410.50;1996.80;;;;;;5055402;28;20021;-78
2023/04/14 02:30:49;;;;;;;7.80;3.22;;;410.40;2022.40;;;;;;5055691;28;20025;-81
2023/04/14 02:33:20;;;;;;;15.18;4.68;;;410.40;2022.40;;;;;;5037342;28;20124;-79
2023/04/14 02:36:00;;;;;;;10.55;3.45;;;410.40;2022.40;;;;;;5037733;28;20029;-81
2023/04/14 02:38:36;;;;;;;7.80;3.58;;;410.40;2022.40;;;;;;5055622;28;20059;-79
2023/04/14 02:41:21;;;;;;;13.18;4.00;;;410.40;2022.40;;;;;;5037296;28;20120;-80
2023/04/14 02:43:54;;;;;;;13.60;4.25;;;410.40;2022.40;;;;;;5037694;28;20373;-82
2023/04/14 02:46:22;;;;;;;8.75;3.45;;;410.40;2022.40;;;;;;5037475;28;20476;-79
2023/04/14 02:48:50;;;;;;;6.63;3.38;;;410.40;2022.40;;;;;;5037336;28;20052;-79
2023/04/14 02:51:18;;;;;;;15.65;4.85;;;410.40;2022.40;;;;;;5053261;28;20036;-78
2023/04/14 02:53:44;;;;;;;12.68;3.95;;;410.40;2022.40;;;;;;5054474;28;20070;-80
2023/04/14 02:56:11;;;;;;;5.25;3.42;;;410.50;2022.40;;;;;;5036853;28;20036;-82
2023/04/14 02:58:38;;;;;;;8.85;3.22;;;410.40;2022.40;;;;;;5036636;28;20083;-78
2023/04/14 03:01:04;;;;;;;11.57;4.25;;;410.30;2022.40;;;;;;5035764;28;20472;-79
2023/04/14 03:03:36;;;;;;;7.70;3.70;;;410.20;2048.00;;;;;;5036119;28;20100;-78
2023/04/14 03:06:05;;;;;;;7.90;3.30;;;410.20;2048.00;;;;;;5037167;28;20037;-79
2023/04/14 03:08:31;;;;;;;8.55;3.78;;;410.20;2048.00;;;;;;5054642;28;20333;-81
2023/04/14 03:10:59;;;;;;;7.90;3.53;;;410.20;2048.00;;;;;;5054981;28;20017;-79
2023/04/14 03:13:27;;;;;;;4.68;3.20;;;410.20;2048.00;;;;;;5036930;28;20449;-79
2023/04/14 03:15:55;;;;;;;7.22;3.78;;;410.20;2048.00;;;;;;5036655;28;20029;-79
2023/04/14 03:18:21;;;;;;;6.60;3.20;;;410.20;2048.00;;;;;;5036815;28;20027;-80
2023/04/14 03:20:50;;;;;;;5.60;3.50;;;410.20;2048.00;;;;;;5055006;28;20445;-81
2023/04/14 03:23:19;;;;;;;5.60;3.08;;;410.20;2048.00;;;;;;5036489;28;20090;-78
2023/04/14 03:25:46;;;;;;;6.78;3.20;;;410.30;2048.00;;;;;;5054950;28;20090;-78
2023/04/14 03:28:15;;;;;;;5.57;3.15;;;410.20;2048.00;;;;;;5036614;28;20032;-78
2023/04/14 03:30:46;;;;;;;5.03;3.33;;;410.20;2048.00;;;;;;5036195;28;20036;-80
2023/04/14 03:33:16;;;;;;;5.88;3.47;;;410.30;2048.00;;;;;;5036493;28;20086;-80
2023/04/14 03:35:45;;;;;;;9.50;3.58;;;410.30;2022.40;;;;;;5053892;28;20040;-80
2023/04/14 03:38:15;;;;;;;6.78;4.00;;;410.30;2022.40;;;;;;5053865;28;20401;-78
2023/04/14 03:40:45;;;;;;;8.82;3.65;;;410.40;2048.00;;;;;;5036431;28;20032;-79
2023/04/14 03:43:12;;;;;;;6.15;3.47;;;410.40;2048.00;;;;;;5036214;28;20567;-79
2023/04/14 03:45:39;;;;;;;5.65;3.15;;;410.40;2022.40;;;;;;5054196;28;20025;-81
2023/04/14 03:48:10;;;;;;;6.28;3.05;;;410.40;2022.40;;;;;;5054244;28;20078;-80
2023/04/14 03:50:41;;;;;;;9.23;3.45;;;410.50;2022.40;;;;;;5053596;28;20346;-80
2023/04/14 03:53:11;;;;;;;7.45;3.38;;;410.50;2022.40;;;;;;5053993;28;20055;-80
2023/04/14 03:55:39;;;;;;;9.30;3.83;;;410.50;2022.40;;;;;;5054145;28;20025;-81
2023/04/14 03:58:07;;;;;;;6.97;4.18;;;410.50;2022.40;;;;;;5035999;28;20078;-78
2023/04/14 04:00:35;;;;;;;10.07;5.50;;;410.50;2048.00;;;;;;5036309;28;20469;-82
2023/04/14 04:03:01;;;;;;;10.20;5.13;;;410.40;2073.60;;;;;;5036008;28;20032;-80
2023/04/14 04:05:27;;;;;;;8.02;4.82;;;410.40;2048.00;;;;;;5035860;28;20025;-79
2023/04/14 04:07:54;;;;;;;7.88;4.82;;;410.30;2073.60;;;;;;5053892;28;20063;-80
2023/04/14 04:10:21;;;;;;;8.38;4.38;;;410.30;2048.00;;;;;;5035979;28;20078;-81
2023/04/14 04:12:48;;;;;;;11.05;4.88;;;410.30;2048.00;;;;;;5035368;28;20029;-79
2023/04/14 04:15:15;;;;;;;9.82;4.35;;;410.40;2048.00;;;;;;5035890;28;20032;-80
2023/04/14 04:17:42;;;;;;;9.07;4.60;;;410.40;2048.00;;;;;;5035686;28;20029;-81
2023/04/14 04:20:13;;;;;;;7.07;4.22;;;435.30;2048.00;;;;;;5035827;28;20031;-80
2023/04/14 04:22:40;;;;;;;7.50;4.32;;;410.40;2073.60;;;;;;5035578;28;20082;-81
2023/04/14 04:25:10;;;;;;;7.57;4.20;;;410.40;2073.60;;;;;;5053129;28;20393;-80
2023/04/14 04:27:36;;;;;;;7.57;3.67;;;435.40;2073.60;;;;;;5053871;28;20469;-78
2023/04/14 04:30:06;;;;;;;8.00;4.13;;;410.30;2073.60;;;;;;5035654;28;20021;-80
2023/04/14 04:32:32;;;;;;;6.90;3.97;;;410.20;2099.20;;;;;;5030389;28;20064;-78
2023/04/14 04:34:59;;;;;;;8.05;4.20;;;410.20;2073.60;;;;;;5053691;28;20096;-78
2023/04/14 04:37:27;;;;;;;12.15;6.40;;;410.20;2099.20;;;;;;5053316;28;20060;-78
2023/04/14 04:39:56;;;;;;;20.15;13.00;;;410.20;2099.20;;;;;;5035328;28;20535;-80
2023/04/14 04:42:22;;;;;;;26.92;18.73;;;410.10;2124.80;;;;;;5053603;28;20107;-79
2023/04/14 04:44:48;;;;;;;27.20;19.02;;;410.00;2124.80;;;;;;5035797;28;20124;-77
2023/04/14 04:47:14;;;;;;;18.77;11.02;;;410.00;2124.80;;;;;;5035132;28;20456;-79
2023/04/14 04:49:40;;;;;;;13.35;7.70;;;410.00;2124.80;;;;;;5034291;28;20039;-79
2023/04/14 04:52:06;;;;;;;9.50;5.57;;;410.00;2124.80;;;;;;5034632;28;20513;-78
2023/04/14 04:54:31;;;;;;;11.85;4.82;;;410.10;2099.20;;;;;;5034139;28;20530;-78
2023/04/14 04:56:57;;;;;;;14.35;7.35;;;410.20;2099.20;;;;;;5035432;28;20120;-77
2023/04/14 04:59:23;;;;;;;19.58;10.70;;;410.20;2099.20;;;;;;5035123;28;20499;-80
2023/04/14 05:01:49;;;;;;;13.07;7.75;;;410.20;2099.20;;;;;;5053021;28;20418;-78
2023/04/14 05:04:15;;;;;;;14.18;7.75;;;410.20;2099.20;;;;;;5035450;28;20064;-80
2023/04/14 05:06:41;;;;;;;16.10;7.53;;;410.20;2099.20;;;;;;5034940;28;20465;-77
2023/04/14 05:09:07;;;;;;;10.70;6.70;;;410.20;2099.20;;;;;;5035428;28;20037;-80
2023/04/14 05:11:34;;;;;;;13.52;9.43;;;410.20;2124.80;;;;;;5035399;28;20112;-80
2023/04/14 05:14:01;;;;;;;15.40;9.85;;;410.20;2099.20;;;;;;5050843;28;20039;-80
2023/04/14 05:16:27;;;;;;;16.75;12.23;;;410.20;2124.80;;;;;;5035226;28;20041;-79
2023/04/14 05:18:53;;;;;;;14.07;10.13;;;410.20;2124.80;;;;;;5052065;28;20021;-79
2023/04/14 05:21:19;;;;;;;16.15;8.30;;;410.20;2124.80;;;;;;5052519;28;20025;-79
2023/04/14 05:23:45;;;;;;;13.77;7.07;;;410.20;2124.80;;;;;;5053452;28;20036;-79
2023/04/14 05:26:12;;;;;;;11.75;7.43;;;410.20;2124.80;;;;;;5038809;28;20032;-80
2023/04/14 05:28:39;;;;;;;13.23;7.90;;;410.20;2124.80;;;;;;5038687;28;20132;-77
2023/04/14 05:31:05;;;;;;;12.43;7.10;;;410.30;2099.20;;;;;;5038879;28;20071;-79
2023/04/14 05:33:31;;;;;;;10.43;7.50;;;410.20;2124.80;;;;;;5056594;28;20025;-79
2023/04/14 05:35:57;;;;;;;14.45;7.45;;;410.30;2124.80;;;;;;5038558;28;20119;-82
2023/04/14 05:38:23;;;;;;;15.65;9.40;;;410.30;2124.80;;;;;;5038247;28;20136;-80
2023/04/14 05:40:49;;;;;;;11.57;5.82;;;410.30;2099.20;;;;;;5038577;28;20039;-79
2023/04/14 05:43:16;;;;;;;10.10;6.75;;;410.50;2099.20;;;;;;5037968;28;20040;-78
2023/04/14 05:45:42;;;;;;;12.02;5.90;;;410.30;2099.20;;;;;;5038196;28;20036;-78
2023/04/14 05:48:07;;;;;;;8.55;5.57;;;410.40;2124.80;;;;;;5038568;28;20037;-78
2023/04/14 05:50:34;;;;;;;9.25;4.60;;;410.30;2124.80;;;;;;5038130;28;20033;-78
2023/04/14 05:53:00;;;;;;;10.80;5.10;;;410.40;2124.80;;;;;;5056270;28;20021;-78
2023/04/14 05:55:26;;;;;;;10.15;4.78;;;410.40;2099.20;;;;;;5038051;28;20079;-78
2023/04/14 05:57:52;;;;;;;9.73;5.05;;;410.40;2073.60;;;;;;5036438;28;20025;-79
2023/04/14 06:00:18;;;;;;;8.27;4.90;;;410.40;2099.20;;;;;;5037349;28;20116;-79
2023/04/14 06:02:44;;;;;;;10.25;5.63;;;410.50;2099.20;;;;;;5036907;28;20025;-81
2023/04/14 06:05:11;;;;;;;8.68;5.47;;;410.50;2099.20;;;;;;5038122;28;20021;-79
2023/04/14 06:07:40;;;;;;;14.93;7.80;;;435.20;2073.60;;;;;;5038291;28;20025;-80
2023/04/14 06:10:07;;;;;;;23.83;14.82;;;435.20;2099.20;;;;;;5037912;28;20112;-80
2023/04/14 06:12:32;;;;;;;13.20;9.02;;;435.30;2099.20;;;;;;5037940;28;20067;-82
2023/04/14 06:14:59;;;;;;;25.25;14.65;;;435.40;2099.20;;;;;;5055855;28;20033;-78
2023/04/14 06:17:25;;;;;;;16.20;9.25;;;435.40;2099.20;;;;;;5037799;28;20071;-82
2023/04/14 06:19:52;;;;;;;16.05;9.07;;;435.50;2073.60;;;;;;5037833;28;20380;-80
2023/04/14 06:22:18;;;;;;;13.38;9.00;;;435.50;2099.20;;;;;;5038170;28;20036;-81
2023/04/14 06:24:47;;;;;;;18.60;8.60;;;435.60;2099.20;;;;;;5055501;28;20025;-81
2023/04/14 06:27:13;;;;;;;14.32;8.25;;;435.60;2099.20;;;;;;5055452;28;20055;-81
2023/04/14 06:29:39;;;;;;;15.60;7.60;;;435.60;2099.20;;;;;;5037983;28;20028;-79
2023/04/14 06:32:06;;;;;;;17.35;8.88;;;435.50;2099.20;;;;;;5037490;28;20025;-81
2023/04/14 06:34:31;;;;;;;14.27;7.40;;;435.50;2099.20;;;;;;5037719;28;20150;-80
2023/04/14 06:37:00;;;;;;;10.32;6.50;;;435.50;2099.20;;;;;;5055081;28;20049;-82
2023/04/14 06:39:26;;;;;;;7.90;4.15;;;435.30;2099.20;;;;;;5037411;28;20021;-81
2023/04/14 06:41:52;;;;;;;9.40;4.22;;;435.50;2048.00;;;;;;5055869;28;20155;-80
2023/04/14 06:44:18;;;;;;;10.93;5.13;;;435.60;1996.80;;;;;;5037620;28;20071;-82
2023/04/14 06:46:44;;;;;;;11.70;3.78;;;435.70;1996.80;;;;;;5037227;28;20056;-81
2023/04/14 06:49:10;;;;;;;13.30;4.25;;;435.80;1971.20;;;;;;5037567;28;20480;-81
2023/04/14 06:51:36;;;;;;;9.52;3.58;;;435.80;1971.20;;;;;;5054917;28;20070;-82
2023/04/14 06:54:02;;;;;;;11.68;4.55;;;435.90;1971.20;;;;;;5037202;28;20029;-79
2023/04/14 06:56:28;;;;;;;9.98;4.05;;;436.00;1971.20;;;;;;5037469;28;20119;-80
2023/04/14 06:58:54;;;;;;;9.15;5.45;;;460.80;1971.20;;;;;;5037299;28;20548;-82
2023/04/14 07:01:19;;;;;;;10.00;5.28;;;460.80;1971.20;;;;;;5054737;28;20017;-81
2023/04/14 07:03:45;;;;;;;13.93;4.57;;;461.10;1971.20;;;;;;5037251;28;20068;-80
2023/04/14 07:06:15;;;;;;;13.27;5.20;;;461.20;1945.60;;;;;;5055016;28;20025;-79
2023/04/14 07:08:42;;;;;;;17.02;7.43;;;461.40;1920.00;;;;;;5037011;28;20060;-80
2023/04/14 07:11:10;;;;;;;15.60;5.60;;;461.60;1920.00;;;;;;5054938;28;20025;-80
2023/04/14 07:13:37;;;;;;;16.02;5.05;;;461.60;1945.60;;;;;;5036605;28;20443;-78
2023/04/14 07:16:05;;;;;;;8.60;4.22;;;461.50;1996.80;;;;;;5036788;28;20098;-80
2023/04/14 07:18:31;;;;;;;15.73;4.53;;;461.30;2048.00;;;;;;5036749;28;20024;-81
2023/04/14 07:21:00;;;;;;;10.68;3.95;;;460.90;2073.60;;;;;;5054644;28;20029;-80
2023/04/14 07:23:27;;;;;;;6.10;3.70;;;436.10;2099.20;;;;;;5036713;28;20036;-79
2023/04/14 07:25:56;;;;;;;8.77;3.80;;;435.90;2124.80;;;;;;5036761;28;20025;-80
2023/04/14 07:28:22;;;;;;;6.68;2.90;;;435.70;2150.40;;;;;;5036508;28;20028;-78
2023/04/14 07:30:48;;;;;;;10.98;3.20;;;435.60;2176.00;;;;;;5036687;28;20413;-79
2023/04/14 07:33:18;;;;;;;7.93;2.45;;;435.30;2176.00;;;;;;5036482;28;20123;-81
2023/04/14 07:35:55;;;;;;;6.55;3.00;;;410.50;2227.20;;;;;;5036296;28;20461;-81
2023/04/14 07:38:21;;;;;;;4.95;1.65;;;410.30;2227.20;;;;;;5053725;28;20522;-81
2023/04/14 07:40:47;;;;;;;11.93;4.30;;;410.00;2252.80;;;;;;5036101;28;20024;-79
2023/04/14 07:43:13;;;;;;;5.78;2.10;;;410.00;2252.80;;;;;;5036079;28;20040;-79
2023/04/14 07:45:38;;;;;;;4.28;1.95;;;410.00;2227.20;;;;;;5036021;28;20060;-76
2023/04/14 07:48:04;;;;;;;5.28;2.30;;;410.00;2227.20;;;;;;5035591;28;20029;-80
2023/04/14 07:50:30;;;;;;;8.73;2.38;;;410.20;2201.60;;;;;;5035982;28;20464;-80
2023/04/14 07:52:58;;;;;;;7.88;2.00;;;410.00;2201.60;;;;;;5036249;28;20025;-81
2023/04/14 07:55:24;;;;;;;13.38;3.08;;;409.90;2227.20;;;;;;5035898;28;20033;-78
2023/04/14 07:57:50;;;;;;;4.90;2.05;;;409.60;2227.20;;;;;;5036176;28;20108;-78
2023/04/14 08:00:16;;;;;;;11.35;2.33;;;384.70;2252.80;;;;;;5053946;28;20028;-80
2023/04/14 08:02:41;;;;;;;11.27;2.63;;;384.60;2278.40;;;;;;5035793;28;20025;-80
2023/04/14 08:05:08;;;;;;;17.13;2.63;;;384.50;2278.40;;;;;;5035744;28;20029;-80
2023/04/14 08:07:34;;;;;;;6.57;2.22;;;384.30;2278.40;;;;;;5036051;28;20025;-80
2023/04/14 08:10:00;;;;;;;6.93;1.30;;;384.10;2304.00;;;;;;5036093;28;20020;-77
2023/04/14 08:12:26;;;;;;;3.88;1.50;;;359.30;2278.40;;;;;;5035887;28;20431;-82
2023/04/14 08:14:52;;;;;;;4.85;1.75;;;359.10;2278.40;;;;;;5035925;28;20116;-81
2023/04/14 08:17:19;;;;;;;10.00;2.00;;;359.10;2278.40;;;;;;5019401;28;20032;-81
2023/04/14 08:19:45;;;;;;;5.18;1.80;;;359.00;2278.40;;;;;;5035894;28;20048;-78
2023/04/14 08:22:11;;;;;;;4.25;1.50;;;358.90;2278.40;;;;;;5019582;28;20037;-81
2023/04/14 08:24:37;;;;;;;4.47;2.17;;;358.90;2278.40;;;;;;5035549;28;20029;-80
2023/04/14 08:27:03;;;;;;;4.57;1.88;;;358.80;2304.00;;;;;;5053679;28;20082;-78
2023/04/14 08:29:28;;;;;;;6.25;1.70;;;358.80;2329.60;;;;;;5053349;28;20107;-77
2023/04/14 08:31:54;;;;;;;3.88;1.90;;;358.60;2329.60;;;;;;5035647;28;20112;-78
2023/04/14 08:34:20;;;;;;;5.15;2.10;;;358.60;2329.60;;;;;;5053470;28;20388;-78
2023/04/14 08:36:48;;;;;;;9.68;2.58;;;358.60;2304.00;;;;;;5035260;28;20033;-78
2023/04/14 08:39:14;;;;;;;3.38;1.35;;;358.60;2304.00;;;;;;5035664;28;20025;-79
2023/04/14 08:41:41;;;;;;;3.17;1.65;;;358.50;2278.40;;;;;;5035685;28;20420;-79
2023/04/14 08:44:07;;;;;;;5.03;2.35;;;358.50;2278.40;;;;;;5035259;28;20036;-76
2023/04/14 08:46:35;;;;;;;3.78;1.73;;;358.60;2252.80;;;;;;5035785;28;20021;-80
2023/04/14 08:49:06;;;;;;;5.75;3.10;;;358.60;2278.40;;;;;;5039713;28;20040;-78
2023/04/14 08:51:37;;;;;;;6.68;3.38;;;358.80;2278.40;;;;;;5033550;28;20083;-78
2023/04/14 08:54:07;;;;;;;5.20;2.50;;;358.70;2278.40;;;;;;5032286;28;20029;-78
2023/04/14 08:56:35;;;;;;;5.88;2.47;;;358.70;2252.80;;;;;;5032073;28;20038;-81
2023/04/14 08:59:01;;;;;;;8.23;2.60;;;358.80;2252.80;;;;;;5033910;28;20083;-77
2023/04/14 09:01:28;;;;;;;5.95;2.08;;;358.80;2252.80;;;;;;5057290;28;20029;-81
2023/04/14 09:03:56;;;;;;;4.68;2.60;;;358.80;2252.80;;;;;;5038590;28;20044;-82
2023/04/14 09:06:22;;;;;;;6.85;3.20;;;358.80;2252.80;;;;;;5057383;28;20032;-81
2023/04/14 09:08:48;;;;;;;5.72;2.25;;;358.80;2227.20;;;;;;5039710;28;20056;-84
2023/04/14 09:11:17;;;;;;;3.33;1.92;;;358.80;2227.20;;;;;;5039514;28;20033;-79
2023/04/14 09:13:44;;;;;;;3.72;1.83;;;358.80;2227.20;;;;;;5056649;28;20040;-77
2023/04/14 09:16:11;;;;;;;7.57;3.63;;;358.80;2201.60;;;;;;5039181;28;20029;-78
2023/04/14 09:18:40;;;;;;;4.78;1.50;;;358.80;2201.60;;;;;;5038994;28;20021;-81
2023/04/14 09:21:06;;;;;;;4.97;2.80;;;358.80;2150.40;;;;;;5057153;28;20488;-76
2023/04/14 09:23:32;;;;;;;5.47;2.65;;;358.80;2176.00;;;;;;5039049;28;20060;-77
2023/04/14 09:25:58;;;;;;;6.57;2.92;;;358.80;2176.00;;;;;;5038641;28;20029;-78
2023/04/14 09:28:24;;;;;;;5.95;3.35;;;358.80;2176.00;;;;;;5056870;28;20104;-78
2023/04/14 09:30:50;;;;;;;8.43;4.90;;;358.80;2176.00;;;;;;5038567;28;20502;-77
2023/04/14 09:33:21;;;;;;;5.50;2.90;;;358.80;2150.40;;;;;;5038432;28;20029;-76
2023/04/14 09:35:51;;;;;;;6.30;4.82;;;358.70;2150.40;;;;;;5038955;28;20082;-78
2023/04/14 09:38:37;;;;;;;5.60;2.83;;;358.70;2150.40;;;;;;5038554;28;20055;-82
2023/04/14 09:41:07;;;;;;;9.98;3.60;;;358.70;2124.80;;;;;;5056858;28;20088;-82
2023/04/14 09:43:33;;;;;;;6.47;2.90;;;358.80;2124.80;;;;;;5038965;28;20075;-82
2023/04/14 09:46:08;;;;;;;5.95;3.75;;;358.60;2124.80;;;;;;5057115;28;20021;-83
2023/04/14 09:48:36;;;;;;;6.60;3.22;;;358.80;2124.80;;;;;;5038991;28;20029;-85
2023/04/14 09:51:08;;;;;;;6.28;3.50;;;358.60;2099.20;;;;;;5039017;28;20033;-82
2023/04/14 09:53:37;;;;;;;11.23;5.53;;;358.60;2124.80;;;;;;5038976;28;20130;-84
2023/04/14 09:56:08;;;;;;;10.20;3.55;;;358.90;2099.20;;;;;;5038925;28;20040;-81
2023/04/14 09:58:39;;;;;;;9.98;4.45;;;358.60;2099.20;;;;;;5038975;28;20439;-80
2023/04/14 10:01:11;;;;;;;6.97;2.63;;;358.70;2099.20;;;;;;5038657;28;20107;-82
2023/04/14 10:03:42;;;;;;;8.60;4.60;;;358.70;2099.20;;;;;;5056524;28;20082;-82
2023/04/14 10:06:12;;;;;;;8.50;3.72;;;358.70;2099.20;;;;;;5056828;28;20021;-84
2023/04/14 10:08:40;;;;;;;9.63;3.53;;;358.70;2073.60;;;;;;5036977;28;20453;-80
2023/04/14 10:11:33;;;;;;;8.05;3.70;;;358.60;2073.60;;;;;;5033522;28;20100;-82
2023/04/14 10:14:05;;;;;;;7.95;3.85;;;358.60;2073.60;;;;;;5015256;28;20051;-77
2023/04/14 10:16:32;;;;;;;8.25;3.60;;;358.70;2073.60;;;;;;5050876;28;20095;-82
2023/04/14 10:18:58;;;;;;;5.03;2.08;;;358.80;2073.60;;;;;;5018716;28;20125;-78
2023/04/14 10:21:26;;;;;;;6.25;3.67;;;358.80;2073.60;;;;;;5023957;28;20028;-80
2023/04/14 10:23:55;;;;;;;5.10;2.50;;;358.90;2073.60;;;;;;5027680;28;20124;-78
2023/04/14 10:26:21;;;;;;;6.60;2.30;;;359.00;2073.60;;;;;;5017915;28;20032;-78
2023/04/14 10:28:50;;;;;;;6.05;3.20;;;358.90;2073.60;;;;;;5034018;28;20021;-80
2023/04/14 10:31:41;;;;;;;3.92;2.10;;;359.10;2073.60;;;;;;5023188;28;20025;-81
2023/04/14 10:34:12;;;;;;;15.45;6.53;;;359.20;2048.00;;;;;;5025730;28;20032;-80
2023/04/14 10:36:39;;;;;;;7.65;3.60;;;384.00;2073.60;;;;;;5052118;28;20032;-83
2023/04/14 10:39:05;;;;;;;6.05;2.97;;;384.00;2073.60;;;;;;5020992;28;20053;-84
2023/04/14 10:41:52;;;;;;;40.55;24.83;;;384.10;2073.60;;;;;;5055606;28;20419;-83
2023/04/14 10:44:33;;;;;;;8.77;4.35;;;384.20;2099.20;;;;;;5037878;28;20029;-81
2023/04/14 10:47:06;;;;;;;8.18;3.58;;;384.30;2048.00;;;;;;5037716;28;20025;-83
2023/04/14 10:49:37;;;;;;;10.30;4.22;;;384.40;2048.00;;;;;;5038022;28;20464;-86
2023/04/14 10:52:28;;;;;;;9.63;4.22;;;384.40;2048.00;;;;;;5038093;28;20064;-82
2023/04/14 10:55:06;;;;;;;9.95;6.40;;;384.60;2022.40;;;;;;5030505;28;20052;-83
2023/04/14 10:57:43;;;;;;;13.55;7.60;;;384.70;2022.40;;;;;;5037905;28;20079;-82
2023/04/14 11:00:32;;;;;;;8.65;5.00;;;384.90;2022.40;;;;;;5037604;28;20061;-85
2023/04/14 11:03:04;;;;;;;10.75;6.13;;;409.60;2022.40;;;;;;5037740;28;20102;-81
2023/04/14 11:05:34;;;;;;;10.15;5.40;;;409.70;1996.80;;;;;;5055352;28;20037;-81
2023/04/14 11:08:11;;;;;;;6.38;3.17;;;409.80;1996.80;;;;;;5055330;28;20025;-84
2023/04/14 11:10:37;;;;;;;7.25;3.90;;;409.80;1971.20;;;;;;5032712;28;20044;-81
2023/04/14 11:13:02;;;;;;;9.68;5.28;;;409.90;1996.80;;;;;;5039843;28;20360;-80
2023/04/14 11:16:00;;;;;;;7.20;3.58;;;409.90;1971.20;;;;;;5036726;28;20136;-86
2023/04/14 11:18:29;;;;;;;7.13;3.42;;;410.00;1945.60;;;;;;5037236;28;20059;-83
2023/04/14 11:21:12;;;;;;;8.90;3.92;;;410.00;1920.00;;;;;;5038442;28;20469;-84
2023/04/14 11:23:38;;;;;;;6.53;2.78;;;435.40;1920.00;;;;;;5016858;28;20034;-84
2023/04/14 11:26:05;;;;;;;6.28;2.72;;;461.20;1894.40;;;;;;5017420;28;20382;-85
2023/04/14 11:28:33;;;;;;;11.55;5.35;;;486.40;1843.20;;;;;;5029800;28;20121;-82
2023/04/14 11:31:04;;;;;;;6.18;3.63;;;486.80;1740.80;;;;;;5054625;28;20443;-84
2023/04/14 11:33:37;;;;;;;11.25;5.30;;;487.10;1638.40;;;;;;5050000;28;20068;-81
2023/04/14 11:36:06;;;;;;;6.72;3.58;;;487.30;1638.40;;;;;;5025568;28;20082;-82
2023/04/14 11:38:39;;;;;;;6.40;3.10;;;512.00;1664.00;;;;;;5023387;28;20049;-83
2023/04/14 11:41:05;;;;;;;13.57;3.58;;;512.00;1664.00;;;;;;5032928;28;20032;-81
2023/04/14 11:43:31;;;;;;;12.45;5.68;;;487.20;1664.00;;;;;;5016319;28;20057;-82
2023/04/14 11:45:59;;;;;;;11.95;7.45;;;512.30;1638.40;;;;;;5029431;28;20112;-80
2023/04/14 11:48:27;;;;;;;16.48;8.07;;;512.30;1612.80;;;;;;5024374;28;20500;-81
2023/04/14 11:50:53;;;;;;;14.10;7.72;;;512.30;1587.20;;;;;;5029773;28;20033;-79
2023/04/14 11:53:19;;;;;;;10.32;4.45;;;512.90;1561.60;;;;;;5053370;28;20385;-83
2023/04/14 11:55:49;;;;;;;11.18;9.45;;;512.50;1587.20;;;;;;5019016;28;20078;-86
2023/04/14 11:58:21;;;;;;;11.80;4.90;;;512.90;1587.20;;;;;;5050479;28;20422;-84
2023/04/14 12:00:48;;;;;;;9.77;4.10;;;512.70;1561.60;;;;;;5052406;28;20047;-86
2023/04/14 12:03:14;;;;;;;9.43;3.05;;;512.60;1587.20;;;;;;5053287;28;20050;-84
2023/04/14 12:05:40;;;;;;;8.93;3.70;;;512.40;1587.20;;;;;;5035306;28;20468;-86
2023/04/14 12:08:07;;;;;;;9.65;3.97;;;512.50;1587.20;;;;;;5036431;28;20025;-81
2023/04/14 12:10:37;;;;;;;8.10;3.80;;;512.50;1587.20;;;;;;5053644;28;20099;-82
2023/04/14 12:13:05;;;;;;;7.32;4.07;;;512.80;1510.40;;;;;;5053080;28;20029;-84
2023/04/14 12:15:36;;;;;;;6.80;4.00;;;512.60;1510.40;;;;;;5016573;28;20030;-84
2023/04/14 12:18:15;;;;;;;8.13;4.72;;;512.60;1510.40;;;;;;5019099;28;20045;-85
2023/04/14 12:20:46;;;;;;;10.40;5.93;;;512.90;1484.80;;;;;;5034539;28;20037;-84